Time;durP1;ratioP1;P1;durP2;ratioP2;P2;SDS_P1;SDS_P2;PMS_P1;PMS_P2;Temp;Humidity;BMP_temperature;BMP_pressure;BME280_temperature;BME280_humidity;BME280_pressure;Samples;Min_cycle;Max_cycle;Signal;HPM_P1;HPM_P2
2022/08/12 00:43:35;;;;;;;7.37;3.45;;;;;;;19.41;59.43;100966.68;1542907;92;25703;-68
2022/08/12 00:48:48;;;;;;;5.90;3.45;;;;;;;19.31;59.66;100967.20;1570516;89;27380;-68
2022/08/12 00:51:15;;;;;;;7.37;3.55;;;;;;;19.25;59.78;100961.16;1569063;89;25775;-69
2022/08/12 00:53:44;;;;;;;7.65;3.52;;;;;;;19.21;59.86;100956.17;1538828;91;25850;-68
2022/08/12 00:56:10;;;;;;;8.03;3.80;;;;;;;19.16;60.02;100959.95;1574044;89;25996;-68
2022/08/12 00:58:42;;;;;;;6.37;3.52;;;;;;;19.14;60.14;100966.37;1579680;89;25676;-68
2022/08/12 01:01:08;;;;;;;6.05;3.80;;;;;;;19.12;60.37;100970.59;1540103;91;28182;-68
2022/08/12 01:11:55;;;;;;;7.22;4.10;;;;;;;19.06;60.69;100956.35;1570187;90;25883;-66
2022/08/12 01:14:23;;;;;;;6.30;3.20;;;;;;;19.06;60.86;100963.78;1583249;87;27405;-67
2022/08/12 01:16:54;;;;;;;5.80;4.25;;;;;;;19.04;60.79;100958.66;1588039;88;25647;-66
2022/08/12 01:19:22;;;;;;;5.90;3.83;;;;;;;19.02;60.92;100962.33;1553811;90;25697;-66
2022/08/12 01:22:22;;;;;;;8.40;4.22;;;;;;;18.99;60.89;100961.06;1562702;90;25728;-66
2022/08/12 01:25:06;;;;;;;7.87;3.67;;;;;;;18.96;60.88;100960.39;1572238;89;25748;-67
2022/08/12 01:27:35;;;;;;;4.25;3.55;;;;;;;18.93;61.03;100960.30;1603341;88;27291;-67
2022/08/12 01:30:06;;;;;;;5.47;3.52;;;;;;;18.90;61.07;100967.84;1609279;88;25785;-67
2022/08/12 01:32:37;;;;;;;4.33;3.40;;;;;;;18.87;61.24;100967.19;1605448;87;25726;-67
2022/08/12 01:35:14;;;;;;;4.85;3.58;;;;;;;18.82;61.63;100970.39;1612861;88;26004;-65
2022/08/12 01:37:57;;;;;;;8.60;3.75;;;;;;;18.82;61.75;100966.27;1606201;88;25705;-66
2022/08/12 01:40:31;;;;;;;5.65;3.35;;;;;;;18.79;61.86;100956.55;1604859;88;27383;-66
2022/08/12 01:43:08;;;;;;;8.40;3.52;;;;;;;18.77;61.90;100961.02;1602318;88;25788;-66
2022/08/12 01:45:39;;;;;;;6.53;3.62;;;;;;;18.77;62.04;100965.70;1600771;87;25714;-68
2022/08/12 01:48:19;;;;;;;7.05;4.00;;;;;;;18.75;62.14;100955.67;1609450;88;26151;-67
2022/08/12 01:51:06;;;;;;;6.30;3.80;;;;;;;18.74;62.13;100952.11;1605011;88;25812;-67
2022/08/12 01:53:41;;;;;;;6.83;3.00;;;;;;;18.74;62.50;100938.99;1605307;88;26956;-67
2022/08/12 01:56:09;;;;;;;6.40;3.75;;;;;;;18.74;62.35;100938.99;1592480;88;25687;-68
2022/08/12 02:01:33;;;;;;;6.17;4.00;;;;;;;18.77;62.48;100945.16;1605869;88;27522;-65
2022/08/12 02:13:37;;;;;;;5.40;3.95;;;;;;;18.80;62.72;100930.76;1579007;89;25723;-66
2022/08/12 02:16:15;;;;;;;7.15;3.40;;;;;;;18.81;62.69;100928.22;1571265;89;25777;-65
2022/08/12 02:18:46;;;;;;;4.87;3.70;;;;;;;18.82;62.73;100925.17;1576333;89;25713;-65
2022/08/12 02:21:25;;;;;;;5.05;3.62;;;;;;;18.81;62.73;100915.34;1561462;90;27414;-65
2022/08/12 02:23:53;;;;;;;5.12;3.60;;;;;;;18.81;62.56;100917.27;1595275;88;25855;-66
2022/08/12 02:26:22;;;;;;;3.92;3.50;;;;;;;18.88;62.64;100927.07;1556303;90;25683;-66
2022/08/12 02:28:51;;;;;;;5.35;3.62;;;;;;;18.79;62.72;100901.75;1558216;92;25878;-67
2022/08/12 02:31:18;;;;;;;5.35;3.22;;;;;;;18.78;62.69;100914.66;1556537;90;26809;-67
2022/08/12 02:33:46;;;;;;;4.58;3.60;;;;;;;18.78;62.77;100916.03;1559555;90;27442;-67
2022/08/12 02:36:15;;;;;;;5.58;3.27;;;;;;;18.78;62.82;100913.30;1597502;88;25660;-67
2022/08/12 02:38:42;;;;;;;6.25;3.77;;;;;;;18.78;62.88;100921.52;1594766;88;25807;-67
2022/08/12 02:41:12;;;;;;;4.08;3.33;;;;;;;18.78;62.91;100925.63;1595515;88;25549;-67
2022/08/12 02:43:55;;;;;;;9.03;3.45;;;;;;;18.79;62.92;100920.93;1592201;88;25760;-67
2022/08/12 02:46:31;;;;;;;10.45;4.87;;;;;;;18.80;63.09;100931.55;1592560;88;27373;-67
2022/08/12 02:49:22;;;;;;;4.30;3.27;;;;;;;18.81;63.05;100930.41;1589930;88;25607;-67
2022/08/12 02:51:50;;;;;;;5.05;3.37;;;;;;;18.83;62.98;100931.44;1591033;88;25891;-67
2022/08/12 02:54:16;;;;;;;5.85;3.17;;;;;;;18.81;62.99;100935.89;1558437;90;25819;-66
2022/08/12 02:56:43;;;;;;;5.00;3.12;;;;;;;18.82;63.01;100932.02;1559299;90;25716;-67
2022/08/12 02:59:15;;;;;;;7.05;3.52;;;;;;;18.82;63.17;100927.09;1592884;88;27338;-67
2022/08/12 03:01:50;;;;;;;7.45;3.40;;;;;;;18.83;63.36;100905.41;1593138;88;25693;-67
2022/08/12 03:04:34;;;;;;;7.53;3.75;;;;;;;18.82;63.56;100895.58;1593208;88;25815;-67
2022/08/12 03:07:19;;;;;;;5.12;4.00;;;;;;;18.83;63.73;100908.95;1559275;90;25728;-66
2022/08/12 03:09:54;;;;;;;5.17;3.52;;;;;;;18.84;63.87;100919.34;1593148;88;25422;-65
2022/08/12 03:12:23;;;;;;;6.92;3.87;;;;;;;18.83;64.18;100929.52;1556053;92;28155;-65
2022/08/12 03:14:53;;;;;;;4.42;3.22;;;;;;;18.82;64.22;100929.28;1558668;90;25703;-65
2022/08/12 03:17:45;;;;;;;6.42;3.42;;;;;;;18.82;64.25;100942.16;1559511;90;25764;-66
2022/08/12 03:20:15;;;;;;;5.12;3.80;;;;;;;18.79;64.28;100934.05;1558856;90;25750;-67
2022/08/12 03:22:44;;;;;;;5.78;3.22;;;;;;;18.78;64.80;100922.88;1594901;88;25760;-66
2022/08/12 03:25:26;;;;;;;7.22;3.27;;;;;;;18.78;65.11;100919.33;1601776;88;27946;-65
2022/08/12 03:27:54;;;;;;;5.42;3.50;;;;;;;18.77;65.25;100931.45;1567305;90;34985;-66
2022/08/12 03:30:30;;;;;;;7.62;3.35;;;;;;;18.77;65.07;100941.04;1537850;91;25711;-67
2022/08/12 03:32:59;;;;;;;7.72;3.77;;;;;;;18.77;65.01;100948.68;1564691;90;26581;-67
2022/08/12 03:35:31;;;;;;;10.13;3.65;;;;;;;18.75;65.07;100948.23;1559627;90;25703;-68
2022/08/12 03:38:05;;;;;;;8.05;3.75;;;;;;;18.74;64.92;100958.17;1596289;88;27350;-66
2022/08/12 04:00:23;;;;;;;7.47;3.67;;;;;;;18.58;66.40;100963.02;1599301;88;25817;-66
2022/08/12 04:03:02;;;;;;;5.37;3.50;;;;;;;18.57;66.42;100965.52;1602299;88;25398;-68
2022/08/12 04:05:30;;;;;;;4.90;3.80;;;;;;;18.54;66.65;100968.98;1560170;90;29622;-68
2022/08/12 04:07:58;;;;;;;4.67;3.45;;;;;;;18.54;66.98;100969.53;1605681;88;25748;-66
2022/08/12 04:13:24;;;;;;;4.35;3.90;;;;;;;18.52;67.17;100968.50;1592054;88;26146;-66
2022/08/12 04:15:51;;;;;;;4.92;3.70;;;;;;;18.52;67.44;100967.14;1605378;88;25721;-67
2022/08/12 04:18:18;;;;;;;8.63;3.83;;;;;;;18.53;67.67;100965.22;1558728;90;27440;-67
2022/08/12 04:20:48;;;;;;;6.05;4.17;;;;;;;18.53;67.61;100970.69;1562420;90;25704;-67
2022/08/12 04:23:16;;;;;;;7.90;4.50;;;;;;;18.55;67.69;100973.88;1604387;87;25569;-68
2022/08/12 04:25:43;;;;;;;7.55;4.15;;;;;;;18.55;67.76;100969.19;1618244;87;25683;-67
2022/08/12 04:28:11;;;;;;;5.90;3.98;;;;;;;18.59;67.88;100976.14;1606374;87;25718;-67
2022/08/12 04:30:42;;;;;;;6.12;4.10;;;;;;;18.63;67.98;100976.47;1610252;87;27532;-68
2022/08/12 04:33:08;;;;;;;4.58;3.87;;;;;;;18.69;68.17;100980.34;1618309;87;25921;-67
2022/08/12 04:35:36;;;;;;;4.80;4.22;;;;;;;18.71;68.03;100976.13;1609918;87;25658;-67
2022/08/12 04:38:04;;;;;;;3.92;3.55;;;;;;;18.74;67.89;100973.25;1625282;87;25750;-67
2022/08/12 04:40:35;;;;;;;11.05;4.40;;;;;;;18.78;67.83;100974.13;1617310;87;26348;-67
2022/08/12 04:43:02;;;;;;;5.62;4.10;;;;;;;18.80;67.78;100971.28;1547382;91;27408;-66
2022/08/12 04:45:31;;;;;;;4.97;3.37;;;;;;;18.85;67.80;100981.23;1568124;90;25953;-66
2022/08/12 04:47:58;;;;;;;5.10;4.60;;;;;;;18.92;67.92;100966.94;1566083;91;25737;-66
2022/08/12 04:50:25;;;;;;;7.53;4.67;;;;;;;18.97;68.00;100975.70;1565983;91;25821;-66
2022/08/12 04:52:51;;;;;;;9.20;4.53;;;;;;;19.04;68.00;100972.36;1566608;90;25514;-68
2022/08/12 04:55:19;;;;;;;7.20;4.25;;;;;;;19.11;67.89;100975.87;1568294;89;27493;-66
2022/08/12 04:57:46;;;;;;;6.67;3.92;;;;;;;19.20;67.83;100977.87;1579308;90;25721;-66
2022/08/12 05:00:15;;;;;;;10.32;4.95;;;;;;;19.30;67.66;100977.94;1615030;87;25646;-68
2022/08/12 05:02:42;;;;;;;6.70;4.30;;;;;;;19.36;67.58;100974.59;1616395;87;25711;-68
2022/08/12 05:05:19;;;;;;;8.45;4.40;;;;;;;19.43;67.24;100970.41;1613697;87;25703;-66
2022/08/12 05:07:49;;;;;;;4.15;3.85;;;;;;;19.48;67.04;100969.60;1610166;87;27063;-67
2022/08/12 05:10:17;;;;;;;4.50;3.85;;;;;;;19.56;67.16;100967.81;1613786;87;25631;-67
2022/08/12 05:12:49;;;;;;;7.60;4.28;;;;;;;19.64;66.98;100972.92;1614953;87;25541;-67
2022/08/12 05:15:16;;;;;;;4.95;4.35;;;;;;;19.69;66.94;100972.07;1611618;87;25688;-67
2022/08/12 05:17:43;;;;;;;7.05;3.92;;;;;;;19.75;66.64;100976.19;1581161;89;25748;-67
2022/08/12 05:20:14;;;;;;;8.33;3.85;;;;;;;19.81;66.61;100973.17;1565552;89;27561;-67
2022/08/12 05:22:44;;;;;;;6.20;4.30;;;;;;;19.85;66.49;100968.55;1545839;91;25742;-66
2022/08/12 05:25:12;;;;;;;4.85;4.10;;;;;;;19.97;66.73;100972.56;1556737;90;25782;-67
2022/08/12 05:27:39;;;;;;;6.53;3.63;;;;;;;20.09;66.67;100982.09;1573221;91;26305;-67
2022/08/12 05:30:08;;;;;;;5.95;4.00;;;;;;;20.19;66.26;100985.42;1572416;89;25697;-67
2022/08/12 05:32:36;;;;;;;7.72;4.15;;;;;;;20.26;66.18;100989.69;1573206;90;27539;-67
2022/08/12 05:35:05;;;;;;;7.28;3.80;;;;;;;20.34;66.19;100989.49;1551891;91;25637;-66
2022/08/12 05:37:33;;;;;;;4.42;4.10;;;;;;;20.48;66.31;100993.71;1574083;89;25371;-66
2022/08/12 05:40:01;;;;;;;6.73;3.67;;;;;;;20.55;65.93;100996.64;1583644;89;26182;-66
2022/08/12 05:42:27;;;;;;;5.53;4.17;;;;;;;20.59;65.62;100993.37;1581388;89;25456;-70
2022/08/12 05:44:54;;;;;;;5.42;4.08;;;;;;;20.66;65.85;100997.67;1558810;90;27455;-70
2022/08/12 05:47:20;;;;;;;6.35;3.70;;;;;;;20.76;65.76;100987.28;1562587;90;25391;-69
2022/08/12 05:49:47;;;;;;;6.05;4.37;;;;;;;20.85;65.71;100988.63;1558574;90;25723;-69
2022/08/12 05:52:13;;;;;;;6.97;4.20;;;;;;;20.98;65.71;100981.63;1556723;90;25402;-69
2022/08/12 05:54:43;;;;;;;4.45;3.70;;;;;;;21.10;65.49;100979.30;1559888;90;25809;-70
2022/08/12 05:57:10;;;;;;;5.35;3.75;;;;;;;21.27;65.59;100982.36;1556710;90;27504;-70
2022/08/12 05:59:40;;;;;;;7.15;3.72;;;;;;;21.45;65.31;100975.00;1553743;90;25705;-70
2022/08/12 06:02:09;;;;;;;4.65;4.15;;;;;;;21.56;64.75;100973.27;1553613;90;25707;-70
2022/08/12 06:04:36;;;;;;;6.33;4.08;;;;;;;21.67;64.53;100967.93;1556400;90;26223;-70
2022/08/12 06:07:07;;;;;;;4.83;4.20;;;;;;;21.72;64.09;100964.87;1610234;87;25753;-70
2022/08/12 06:09:31;;;;;;;5.62;3.80;;;;;;;21.84;64.26;100959.74;1610734;87;28305;-70
2022/08/12 06:11:59;;;;;;;11.00;4.80;;;;;;;21.99;64.27;100963.52;1607205;87;25605;-70
2022/08/12 06:14:26;;;;;;;5.15;3.55;;;;;;;22.16;64.11;100959.44;1611326;87;25717;-70
2022/08/12 06:16:52;;;;;;;4.95;4.42;;;;;;;22.31;63.66;100962.63;1610368;87;25697;-70
2022/08/12 06:19:19;;;;;;;6.65;3.70;;;;;;;22.44;63.40;100959.63;1603119;87;25659;-70
2022/08/12 06:21:50;;;;;;;7.42;4.28;;;;;;;22.55;62.95;100960.58;1606440;87;27550;-71
2022/08/12 06:24:16;;;;;;;5.17;4.25;;;;;;;22.69;62.75;100956.59;1611995;87;25526;-71
2022/08/12 06:26:43;;;;;;;5.97;4.08;;;;;;;22.82;62.33;100962.67;1606798;88;25531;-70
2022/08/12 06:29:18;;;;;;;5.72;3.62;;;;;;;22.98;62.32;100963.83;1577905;89;25798;-71
2022/08/12 06:31:38;;;;;;;6.97;3.97;;;;;;;23.16;62.07;100970.16;1578751;90;25673;-71
2022/08/12 06:34:05;;;;;;;4.90;3.27;;;;;;;23.32;61.65;100969.32;1567429;90;27347;-70
2022/08/12 06:36:32;;;;;;;6.15;4.17;;;;;;;23.45;61.19;100970.62;1615029;88;25336;-70
2022/08/12 06:38:58;;;;;;;6.72;3.80;;;;;;;23.63;61.12;100980.46;1608473;88;26615;-66
2022/08/12 06:44:19;;;;;;;4.58;3.42;;;;;;;23.95;60.61;100982.69;1619341;88;25776;-67
2022/08/12 06:46:39;;;;;;;4.63;3.60;;;;;;;24.19;60.12;100969.42;1611732;88;27373;-66
2022/08/12 06:49:12;;;;;;;4.33;3.42;;;;;;;24.40;59.37;100969.55;1573611;89;25748;-66
2022/08/12 06:51:34;;;;;;;8.05;4.28;;;;;;;24.59;59.21;100969.85;1567733;89;25730;-66
2022/08/12 06:54:02;;;;;;;5.70;3.83;;;;;;;24.83;58.98;100970.34;1570761;89;25808;-65
2022/08/12 06:56:29;;;;;;;5.90;3.98;;;;;;;25.06;58.32;100967.22;1568319;89;25413;-65
2022/08/12 06:58:56;;;;;;;6.70;4.00;;;;;;;25.32;57.88;100973.05;1574428;90;27434;-65
2022/08/12 07:01:24;;;;;;;5.60;3.52;;;;;;;25.56;57.39;100965.72;1576231;90;25832;-65
2022/08/12 07:03:51;;;;;;;5.03;3.75;;;;;;;25.78;57.00;100960.96;1612339;88;25766;-68
2022/08/12 07:06:18;;;;;;;4.22;3.42;;;;;;;26.03;56.45;100962.34;1566784;89;25704;-66
2022/08/12 07:08:44;;;;;;;4.58;3.05;;;;;;;26.28;55.92;100962.29;1572877;89;25894;-66
2022/08/12 07:11:13;;;;;;;4.33;3.92;;;;;;;26.51;55.07;100965.17;1575652;89;28106;-66
2022/08/12 07:13:43;;;;;;;3.50;3.20;;;;;;;26.72;54.39;100971.27;1573291;89;25751;-66
2022/08/12 07:16:17;;;;;;;3.65;3.10;;;;;;;26.95;53.54;100977.10;1572945;89;25810;-67
2022/08/12 07:18:49;;;;;;;4.78;3.70;;;;;;;27.16;53.02;100969.83;1563571;90;25781;-67
2022/08/12 07:21:17;;;;;;;3.40;2.90;;;;;;;27.40;52.59;100976.44;1574062;90;25802;-68
2022/08/12 07:23:44;;;;;;;6.25;3.35;;;;;;;27.60;52.04;100971.12;1591351;88;27922;-69
2022/08/12 07:26:18;;;;;;;7.78;3.17;;;;;;;27.82;51.61;100968.13;1568491;89;25502;-68
2022/08/12 07:28:42;;;;;;;3.85;3.20;;;;;;;28.05;51.31;100971.72;1564520;90;25779;-68
2022/08/12 07:31:11;;;;;;;4.42;3.12;;;;;;;28.36;51.07;100976.72;1602020;88;25778;-67
2022/08/12 07:33:40;;;;;;;3.10;2.87;;;;;;;28.60;50.38;100974.86;1560900;90;25798;-67
2022/08/12 07:36:10;;;;;;;3.75;3.00;;;;;;;28.75;49.70;100971.30;1604081;88;27428;-68
2022/08/12 07:38:44;;;;;;;3.75;2.70;;;;;;;28.77;48.35;100968.88;1560575;90;26416;-68
2022/08/12 07:41:17;;;;;;;3.30;2.80;;;;;;;28.74;48.20;100968.94;1603097;88;25724;-67
2022/08/12 07:43:52;;;;;;;2.77;2.58;;;;;;;28.69;47.40;100971.60;1561375;90;25597;-67
2022/08/12 07:46:24;;;;;;;2.75;2.20;;;;;;;28.57;47.18;100975.72;1603262;88;25809;-68
2022/08/12 07:48:55;;;;;;;4.37;2.50;;;;;;;28.44;47.04;100973.27;1560097;90;27372;-68
2022/08/12 07:51:23;;;;;;;3.20;2.90;;;;;;;28.43;47.14;100975.23;1600241;88;25780;-68
2022/08/12 07:53:52;;;;;;;4.45;3.27;;;;;;;28.42;46.58;100968.12;1564847;90;25770;-68
2022/08/12 07:56:18;;;;;;;4.80;3.13;;;;;;;28.37;47.18;100968.58;1609319;88;25729;-67
2022/08/12 07:58:45;;;;;;;3.02;2.77;;;;;;;28.51;47.46;100969.78;1563434;90;25846;-67
2022/08/12 08:01:18;;;;;;;3.30;3.00;;;;;;;28.69;46.75;100965.42;1601827;87;27387;-68
2022/08/12 08:06:33;;;;;;;;;;;;;;;29.17;46.88;100964.97;1602678;88;25671;-67
2022/08/12 08:09:03;;;;;;;2.45;2.25;;;;;;;29.31;45.80;100969.53;1574948;89;26240;-67
2022/08/12 08:14:16;;;;;;;3.17;2.92;;;;;;;29.19;45.12;100969.52;1563354;90;27418;-67
2022/08/12 08:16:42;;;;;;;3.12;2.92;;;;;;;29.19;44.97;100971.52;1568992;89;26418;-67
2022/08/12 08:19:22;;;;;;;3.42;2.98;;;;;;;29.17;44.46;100976.11;1574888;89;25846;-67
2022/08/12 08:21:52;;;;;;;4.53;2.83;;;;;;;29.12;44.72;100980.73;1570926;89;25753;-67
2022/08/12 08:24:18;;;;;;;4.30;2.98;;;;;;;29.08;44.65;100973.63;1607981;88;25599;-67
2022/08/12 08:26:52;;;;;;;7.35;4.92;;;;;;;28.94;44.88;100977.42;1595679;88;27395;-69
2022/08/12 08:29:20;;;;;;;5.28;4.28;;;;;;;28.84;45.37;100984.12;1596383;88;25817;-67
2022/08/12 08:31:54;;;;;;;;;;;;;;;28.83;45.50;100978.35;1596737;88;25764;-68
2022/08/12 08:34:18;;;;;;;5.92;3.00;;;;;;;28.81;45.23;100979.97;1559989;90;25694;-68
2022/08/12 08:36:44;;;;;;;3.42;3.12;;;;;;;28.92;45.91;100984.02;1594067;88;25640;-67
2022/08/12 08:39:15;;;;;;;2.87;2.67;;;;;;;29.04;45.46;100980.04;1598529;88;27367;-67
2022/08/12 08:44:27;;;;;;;4.00;3.52;;;;;;;28.89;44.87;100980.06;1602879;88;25478;-67
2022/08/12 08:46:54;;;;;;;5.92;2.83;;;;;;;28.85;45.12;100992.64;1562600;90;26372;-67
2022/08/12 08:49:22;;;;;;;2.95;2.75;;;;;;;29.04;45.36;100987.61;1556073;90;25810;-67
2022/08/12 08:51:49;;;;;;;5.10;3.05;;;;;;;29.42;45.30;100983.28;1562985;90;27369;-68
2022/08/12 08:54:16;;;;;;;3.87;2.92;;;;;;;29.72;45.06;100981.61;1561320;90;25461;-67
2022/08/12 08:56:43;;;;;;;3.30;3.00;;;;;;;30.03;45.03;100984.27;1599168;88;25764;-67
2022/08/12 08:59:11;;;;;;;3.20;2.90;;;;;;;30.46;44.40;100971.70;1599509;88;25625;-67
2022/08/12 09:01:39;;;;;;;3.20;2.60;;;;;;;30.97;44.40;100961.63;1599222;88;25919;-68
2022/08/12 09:04:09;;;;;;;6.40;3.10;;;;;;;31.58;44.02;100965.77;1590566;88;28616;-67
2022/08/12 09:06:38;;;;;;;3.35;3.00;;;;;;;32.05;42.68;100966.58;1595829;88;25845;-68
2022/08/12 09:09:05;;;;;;;;;;;;;;;32.36;41.73;100960.69;1597064;88;25865;-66
2022/08/12 09:14:19;;;;;;;8.03;3.20;;;;;;;32.20;40.47;100968.55;1594139;88;25773;-67
2022/08/12 09:16:49;;;;;;;4.05;3.42;;;;;;;31.92;40.07;100972.11;1602279;88;27575;-68
2022/08/12 09:19:18;;;;;;;5.00;3.08;;;;;;;31.65;40.70;100969.80;1591122;88;25887;-68
2022/08/12 09:21:46;;;;;;;5.47;3.40;;;;;;;31.60;40.86;100963.94;1590150;88;25747;-68
2022/08/12 09:24:17;;;;;;;4.30;3.98;;;;;;;31.43;40.99;100968.13;1560375;90;25608;-66
2022/08/12 09:26:42;;;;;;;5.50;4.00;;;;;;;31.10;40.98;100969.50;1602755;88;25513;-66
2022/08/12 09:29:08;;;;;;;5.00;3.67;;;;;;;30.86;41.37;100966.03;1606989;88;27579;-65
2022/08/12 09:31:35;;;;;;;5.47;3.67;;;;;;;30.54;41.65;100965.34;1608164;88;25780;-67
2022/08/12 09:34:01;;;;;;;4.80;3.25;;;;;;;30.30;42.35;100967.41;1606326;88;25539;-67
2022/08/12 09:36:30;;;;;;;6.05;4.10;;;;;;;30.29;43.03;100963.03;1610284;88;27224;-67
2022/08/12 09:38:58;;;;;;;8.48;3.42;;;;;;;30.24;42.97;100963.53;1562369;90;25643;-67
2022/08/12 09:41:24;;;;;;;3.33;3.12;;;;;;;30.13;43.25;100967.31;1620964;88;27400;-67
2022/08/12 09:46:36;;;;;;;5.22;3.20;;;;;;;29.92;43.41;100973.32;1559033;90;25827;-66
2022/08/12 09:49:04;;;;;;;3.55;3.25;;;;;;;29.84;43.95;100962.89;1590640;88;25736;-66
2022/08/12 09:51:35;;;;;;;5.10;3.47;;;;;;;29.84;44.09;100969.08;1556460;91;25750;-66
2022/08/12 09:54:02;;;;;;;5.03;3.67;;;;;;;29.72;44.14;100968.45;1601579;88;27363;-67
2022/08/12 09:56:31;;;;;;;5.62;3.80;;;;;;;29.65;44.39;100971.36;1558358;90;25785;-67
2022/08/12 09:58:59;;;;;;;6.33;3.37;;;;;;;29.57;44.54;100974.86;1603323;88;25717;-68
2022/08/12 10:01:25;;;;;;;5.17;3.37;;;;;;;29.57;44.73;100972.08;1569614;90;25724;-66
2022/08/12 10:03:52;;;;;;;8.35;3.70;;;;;;;29.49;44.69;100972.04;1576187;90;25684;-66
2022/08/12 10:06:18;;;;;;;4.12;3.72;;;;;;;29.31;44.72;100965.35;1545092;91;27372;-65
2022/08/12 10:08:45;;;;;;;6.47;4.53;;;;;;;29.15;45.10;100960.98;1566733;89;25697;-65
2022/08/12 10:14:00;;;;;;;4.33;3.72;;;;;;;29.43;46.00;100962.58;1566431;89;25754;-67
2022/08/12 10:16:31;;;;;;;4.45;3.72;;;;;;;29.79;45.95;100959.98;1568202;90;25750;-67
2022/08/12 10:19:04;;;;;;;4.72;3.52;;;;;;;30.25;45.94;100947.77;1560733;90;27750;-68
2022/08/12 10:21:40;;;;;;;6.80;4.08;;;;;;;30.64;45.29;100947.58;1597769;88;25869;-73
2022/08/12 10:24:10;;;;;;;4.60;3.90;;;;;;;31.05;45.07;100953.88;1602950;87;25706;-70
2022/08/12 10:29:43;;;;;;;5.33;3.87;;;;;;;31.42;43.34;100947.61;1595614;87;25836;-70
2022/08/12 10:32:19;;;;;;;7.80;4.10;;;;;;;31.63;43.40;100947.69;1562811;89;27391;-74
2022/08/12 10:34:42;;;;;;;4.85;4.45;;;;;;;31.84;43.49;100937.94;1553266;91;25814;-74
2022/08/12 10:37:09;;;;;;;6.20;4.45;;;;;;;31.85;42.63;100931.13;1552783;91;26340;-73
2022/08/12 10:39:38;;;;;;;5.35;4.00;;;;;;;32.07;42.79;100943.16;1556202;91;25825;-71
2022/08/12 10:44:59;;;;;;;7.72;4.58;;;;;;;31.87;42.28;100923.08;1554093;90;27937;-72
2022/08/12 10:47:29;;;;;;;5.22;4.37;;;;;;;31.65;42.05;100922.87;1558524;90;25860;-71
2022/08/12 10:49:58;;;;;;;7.00;4.40;;;;;;;31.42;42.13;100924.63;1557589;91;26685;-70
2022/08/12 10:52:25;;;;;;;7.70;5.10;;;;;;;31.07;42.18;100922.91;1550354;90;25906;-69
2022/08/12 10:54:54;;;;;;;7.78;5.40;;;;;;;30.80;42.53;100917.53;1559388;91;25793;-67
2022/08/12 10:57:25;;;;;;;6.00;5.00;;;;;;;30.51;42.82;100921.55;1555299;91;27508;-68
2022/08/12 10:59:58;;;;;;;7.97;5.20;;;;;;;30.24;43.19;100915.52;1555394;90;25407;-68
2022/08/12 11:02:21;;;;;;;4.85;4.55;;;;;;;30.06;43.61;100920.67;1556856;89;25842;-68
2022/08/12 11:04:47;;;;;;;6.33;5.50;;;;;;;29.87;44.05;100916.66;1558154;90;25762;-69
2022/08/12 11:07:17;;;;;;;5.45;4.95;;;;;;;29.70;44.40;100915.13;1562949;91;25776;-69
2022/08/12 11:09:45;;;;;;;5.00;4.47;;;;;;;29.63;44.77;100922.23;1552756;91;27462;-69
2022/08/12 11:12:12;;;;;;;6.50;5.03;;;;;;;29.53;44.99;100926.00;1553784;90;25725;-69
2022/08/12 11:14:41;;;;;;;8.40;5.22;;;;;;;29.46;45.42;100919.94;1552920;92;25626;-72
2022/08/12 11:17:13;;;;;;;11.68;5.62;;;;;;;29.45;45.52;100926.71;1557782;90;26404;-71
2022/08/12 11:19:44;;;;;;;6.12;5.53;;;;;;;29.33;45.57;100919.74;1554778;90;26422;-70
2022/08/12 11:22:11;;;;;;;6.67;5.40;;;;;;;29.28;46.09;100918.05;1551965;92;27346;-69
2022/08/12 11:24:38;;;;;;;7.87;5.12;;;;;;;29.25;46.01;100912.71;1552056;90;25934;-69
2022/08/12 11:27:07;;;;;;;6.65;5.12;;;;;;;29.24;46.37;100910.54;1551627;91;25821;-68
2022/08/12 11:29:35;;;;;;;8.30;5.25;;;;;;;29.29;46.36;100910.67;1539258;90;25710;-68
2022/08/12 11:32:03;;;;;;;7.17;5.60;;;;;;;29.23;46.21;100913.16;1569394;90;26404;-68
2022/08/12 11:34:33;;;;;;;5.60;5.03;;;;;;;29.16;46.33;100912.45;1551916;90;27450;-68
2022/08/12 11:37:06;;;;;;;9.87;5.37;;;;;;;29.16;46.70;100911.05;1551707;91;25918;-68
2022/08/12 11:39:33;;;;;;;7.90;5.62;;;;;;;29.22;46.83;100917.76;1552930;90;26219;-69
2022/08/12 11:42:01;;;;;;;6.45;5.80;;;;;;;29.37;47.17;100916.31;1564820;90;26489;-67
2022/08/12 11:44:29;;;;;;;6.47;5.70;;;;;;;29.58;46.81;100914.36;1560830;91;25974;-70
2022/08/12 11:46:57;;;;;;;5.30;4.80;;;;;;;29.64;46.52;100914.65;1561450;91;26925;-68
2022/08/12 11:49:26;;;;;;;8.53;5.67;;;;;;;29.76;46.68;100912.63;1557198;90;26058;-68
2022/08/12 11:51:53;;;;;;;7.97;5.17;;;;;;;29.88;46.30;100907.87;1556147;90;26404;-70
2022/08/12 11:54:24;;;;;;;6.58;5.75;;;;;;;29.92;45.88;100909.97;1555393;90;26318;-70
2022/08/12 11:56:51;;;;;;;6.67;5.83;;;;;;;29.96;45.78;100913.46;1532084;92;25812;-69
2022/08/12 11:59:17;;;;;;;6.50;5.62;;;;;;;29.99;45.58;100907.65;1550610;90;27362;-67
2022/08/12 12:01:44;;;;;;;6.20;5.55;;;;;;;29.85;45.07;100904.53;1532646;92;25412;-67
2022/08/12 12:04:10;;;;;;;10.50;6.35;;;;;;;29.66;45.27;100903.86;1552040;90;26333;-67
2022/08/12 12:06:37;;;;;;;5.92;5.33;;;;;;;29.51;45.69;100899.95;1562204;91;26294;-67
2022/08/12 12:09:03;;;;;;;6.97;5.60;;;;;;;29.42;45.68;100901.89;1562697;90;26353;-69
2022/08/12 12:15:29;;;;;;;10.25;6.35;;;;;;;29.23;46.27;100897.84;1556940;90;25816;-69
2022/08/12 12:17:55;;;;;;;6.70;5.33;;;;;;;29.15;46.82;100890.78;1555465;90;26568;-69
2022/08/12 12:20:23;;;;;;;6.30;5.80;;;;;;;29.27;47.05;100882.45;1554698;90;25754;-68
2022/08/12 12:22:50;;;;;;;6.12;5.53;;;;;;;29.50;47.38;100886.44;1552515;90;25688;-68
2022/08/12 12:25:17;;;;;;;8.40;5.53;;;;;;;29.80;47.10;100881.33;1554542;90;27927;-69
2022/08/12 12:27:53;;;;;;;7.05;6.33;;;;;;;30.03;46.82;100883.88;1557766;90;25893;-69
2022/08/12 12:30:20;;;;;;;8.75;5.87;;;;;;;30.15;46.31;100871.47;1543317;91;25771;-73
2022/08/12 12:32:46;;;;;;;10.38;6.10;;;;;;;30.13;45.88;100873.10;1554411;91;25848;-72
2022/08/12 12:35:13;;;;;;;5.92;5.25;;;;;;;30.01;45.53;100881.51;1543853;91;26426;-69
2022/08/12 12:37:56;;;;;;;8.78;5.72;;;;;;;29.83;45.69;100877.70;1548153;90;27381;-68
2022/08/12 12:40:26;;;;;;;11.05;9.95;;;;;;;29.74;46.13;100876.03;1575065;89;25699;-68
2022/08/12 12:42:54;;;;;;;9.00;6.33;;;;;;;29.89;46.72;100868.99;1549829;90;25870;-68
2022/08/12 12:45:23;;;;;;;7.22;5.53;;;;;;;30.21;46.22;100863.98;1576750;89;25657;-70
2022/08/12 12:48:03;;;;;;;7.80;6.08;;;;;;;30.29;45.52;100861.20;1549688;90;25742;-69
2022/08/12 12:50:41;;;;;;;7.78;5.83;;;;;;;30.37;45.53;100864.05;1576815;89;27486;-69
2022/08/12 12:53:09;;;;;;;7.22;6.50;;;;;;;30.39;45.29;100865.02;1582806;89;25730;-69
2022/08/12 12:55:36;;;;;;;6.67;5.83;;;;;;;30.51;45.13;100863.75;1585086;89;25669;-69
2022/08/12 12:58:04;;;;;;;7.12;6.50;;;;;;;30.79;45.73;100855.91;1548310;90;25778;-69
2022/08/12 13:00:31;;;;;;;6.33;5.75;;;;;;;31.18;44.88;100862.57;1574021;89;25805;-68
2022/08/12 13:03:00;;;;;;;7.92;6.22;;;;;;;31.38;44.08;100853.27;1547605;90;27351;-70
2022/08/12 13:05:30;;;;;;;6.67;6.08;;;;;;;31.29;43.31;100851.11;1546453;90;25545;-70
2022/08/12 13:08:00;;;;;;;6.83;6.05;;;;;;;31.14;43.05;100847.12;1575691;89;25858;-69
2022/08/12 13:10:31;;;;;;;8.78;6.28;;;;;;;31.12;43.49;100844.76;1570308;89;25811;-68
2022/08/12 13:12:57;;;;;;;;;;;;;;;31.22;43.61;100847.89;1551712;90;25803;-68
2022/08/12 13:15:23;;;;;;;6.90;6.30;;;;;;;31.35;43.58;100848.59;1575420;89;27371;-69
2022/08/12 13:17:54;;;;;;;7.30;6.33;;;;;;;31.41;43.48;100845.41;1548072;90;26145;-70
2022/08/12 13:20:22;;;;;;;8.65;6.20;;;;;;;31.41;43.08;100841.22;1522475;92;25908;-70
2022/08/12 13:22:48;;;;;;;9.60;7.00;;;;;;;31.30;42.47;100837.95;1548807;90;25849;-72
2022/08/12 13:25:18;;;;;;;8.00;6.65;;;;;;;31.07;42.56;100843.30;1578888;89;25815;-72
2022/08/12 13:27:47;;;;;;;8.90;6.97;;;;;;;30.91;42.95;100839.86;1568021;90;27364;-69
2022/08/12 13:30:21;;;;;;;11.43;7.20;;;;;;;30.77;43.13;100834.63;1573335;89;30994;-70
2022/08/12 13:32:54;;;;;;;9.45;8.28;;;;;;;30.58;43.45;100833.49;1564933;88;25769;-69
2022/08/12 13:35:20;;;;;;;9.75;8.28;;;;;;;30.38;43.44;100824.36;1538592;91;25789;-71